aviador You're here:

KABR Decoded Metar

ABERDEEN in SD, USA
Report Time2018-06-22 02:53:00
UTC Time2018-06-22 03:08:23
Flight Rules vfr VFR
Wind130° at 03 kt
W.Decomp.*RWY 13: 3.0 kt HW 0.4 kt LCW
RWY 17: 2.0 kt HW 2.2 kt LCW
W.Rank130° ranks 21
Current wind is below 130° avg. (6.7)
Visibility9999 m
Phenomena:N/A
Clouds:N/A
Expected CloudBase > 2,000 ft AGL from Temp-Dew spread
CeilingNone
Temp22°C (ISA +10)
Dew Point17°C (73% RH)
QNH1013 hPa
Density Alt2,680 ft
Elevation1,302 ft
Report Wrong Elevation
Raw Report
KABR 220253Z AUTO 13003KT 9SM CLR 22/17 A2992 RMK AO2 SLP124
T02170172 58001=

Extra information for KABR:More info

Metar Taf Metar & Taf Last 4 Metars F.Rules Stats Wind Profile Meteogram Temp Stats Airport Information Weather charts Add Link Nearby VenuesMetar ALERT Operation Metar Decoded Social comments

AIRNAV info for KABR